Latest Weather Observations for Mount Read

IDT60801

Issued at 6:31 am EST Sunday 1 May 2016 (issued every 30 minutes, with the page automatically refreshed every 10 minutes)

About weather observations | Map of weather stations | Latest weather observations for TAS | Other Formats
Station Details ID: 097085 Name: MOUNT READ Lat: -41.84 Lon: 145.54 Height: 1119.5 m
Data from the previous 72 hours. | See also: Recent months at Mount Read
Date/Time
EST
Temp
°C
App
Temp
°C
Dew
Point
Rel
Hum
%
Delta-T
°C
Wind Press
QNH
hPa
Press
MSL
hPa
Rain
since 9 am
mm
Dir
 
Spd
km/h
Gust
km/h
Spd
kts
Gust
kts
01/06:30am - - - - - N 35 48 19 26 997.7 997.4 -
01/06:00am - - - - - NNE 35 54 19 29 998.3 998.0 -
01/05:49am - - - - - NNE 30 56 16 30 998.6 998.3 -
01/05:30am - - - - - NNE 26 35 14 19 999.6 999.3 -
01/05:00am - - - - - N 22 35 12 19 1000.6 1000.4 -
01/04:40am - - - - - N 35 54 19 29 1000.3 1000.0 -
01/04:30am - - - - - N 37 54 20 29 999.9 999.7 -
01/04:00am - - - - - N 43 65 23 35 1000.3 1000.0 -
01/03:46am - - - - - N 50 69 27 37 1000.1 999.8 -
01/03:30am - - - - - N 46 63 25 34 1000.4 1000.1 -
01/03:19am - - - - - N 32 57 17 31 1001.2 1000.9 -
01/03:00am - - - - - N 32 48 17 26 1002.4 1002.2 -
01/02:42am - - - - - N 54 83 29 45 1002.1 1001.9 -
01/02:41am - - - - - N 56 91 30 49 1002.2 1002.0 -
01/02:33am 10.1 1.1 10.1 100 0.0 NNE 48 91 26 49 1001.9 1001.8 -
01/02:31am 10.1 1.8 10.1 100 0.0 N 44 72 24 39 1002.2 1002.0 -
01/02:30am 10.1 2.0 10.1 100 0.0 N 43 56 23 30 1002.2 1002.0 0.2
01/02:00am 10.0 1.3 10.0 100 0.0 N 46 57 25 31 1002.7 1002.6 0.0
01/01:30am 9.8 0.3 9.8 100 0.0 N 50 65 27 35 1003.5 1003.4 0.0
01/01:00am 9.7 1.3 9.7 100 0.0 N 44 69 24 37 1004.3 1004.2 0.0
01/12:43am 9.6 1.2 9.6 100 0.0 N 44 63 24 34 1004.6 1004.5 0.0
01/12:30am 9.8 1.4 9.8 100 0.0 N 44 59 24 32 1005.1 1005.0 0.0
01/12:00am 9.5 0.7 9.5 100 0.0 N 46 61 25 33 1005.9 1005.8 0.0
 
Date/Time
EST
Temp
°C
App
Temp
°C
Dew
Point
Rel
Hum
%
Delta-T
°C
Wind Press
QNH
hPa
Press
MSL
hPa
Rain
since 9 am
mm
Dir
 
Spd
km/h
Gust
km/h
Spd
kts
Gust
kts
30/11:53pm 9.4 1.1 9.4 100 0.0 N 43 61 23 33 1006.1 1006.0 0.0
30/11:30pm 8.7 1.4 8.7 100 0.0 N 37 44 20 24 1006.9 1006.8 0.0
30/11:00pm 8.6 1.3 8.6 100 0.0 N 37 46 20 25 1007.4 1007.4 0.0
30/10:30pm 8.8 0.2 8.8 100 0.0 N 44 61 24 33 1007.6 1007.6 0.0
30/10:00pm 8.8 0.7 8.8 100 0.0 N 41 57 22 31 1008.5 1008.5 0.0
30/09:30pm 9.0 1.0 9.0 100 0.0 N 41 57 22 31 1008.8 1008.7 0.0
30/09:00pm 9.1 0.6 9.1 100 0.0 N 44 63 24 34 1008.5 1008.5 0.0
30/08:46pm 9.2 0.9 9.2 100 0.0 N 43 65 23 35 1008.3 1008.3 0.0
30/08:30pm 9.1 1.1 9.1 100 0.0 N 41 57 22 31 1008.3 1008.3 0.0
30/08:00pm 8.9 1.3 8.9 100 0.0 N 39 50 21 27 1008.3 1008.3 0.0
30/07:30pm 8.8 1.5 8.8 100 0.0 N 37 46 20 25 1008.5 1008.5 0.0
30/07:00pm 8.9 0.5 8.9 100 0.0 N 43 63 23 34 1008.4 1008.4 0.0
30/06:52pm 8.9 1.3 8.9 100 0.0 N 39 63 21 34 1008.5 1008.5 0.0
30/06:30pm 8.8 1.9 8.8 100 0.0 N 35 48 19 26 1008.6 1008.6 0.0
30/06:00pm 8.8 1.5 8.8 100 0.0 N 37 50 20 27 1008.8 1008.7 0.0
30/05:30pm 8.8 0.4 8.8 100 0.0 N 43 59 23 32 1008.5 1008.5 0.0
30/05:00pm 9.2 1.6 9.2 100 0.0 N 39 61 21 33 1008.6 1008.6 0.0
30/04:30pm 9.4 1.9 9.4 100 0.0 N 39 59 21 32 1009.0 1009.0 0.0
30/04:10pm 9.4 2.3 9.4 100 0.0 N 37 56 20 30 1009.0 1009.0 0.0
30/04:00pm 9.6 2.5 9.6 100 0.0 N 37 54 20 29 1009.1 1009.1 0.0
30/03:31pm 9.8 2.8 9.8 100 0.0 N 37 57 20 31 1009.2 1009.2 0.0
30/03:30pm 9.8 2.4 9.8 100 0.0 N 39 57 21 31 1009.3 1009.3 0.0
30/03:00pm 9.7 2.6 9.7 100 0.0 N 37 50 20 27 1009.4 1009.4 0.0
30/02:30pm 10.1 1.1 10.1 100 0.0 N 48 67 26 36 1009.2 1009.2 0.0
30/02:14pm 10.0 1.9 10.0 100 0.0 N 43 69 23 37 1009.2 1009.2 0.0
30/02:00pm 10.0 2.3 10.0 100 0.0 N 41 56 22 30 1009.4 1009.4 0.0
30/01:30pm 9.9 2.9 9.9 100 0.0 N 37 61 20 33 1009.8 1009.8 0.0
30/01:00pm 9.5 1.6 9.5 100 0.0 N 41 61 22 33 1009.5 1009.5 0.0
30/12:38pm 10.1 2.0 10.1 100 0.0 N 43 61 23 33 1009.9 1009.9 0.0
30/12:30pm 9.8 1.6 9.8 100 0.0 N 43 57 23 31 1010.0 1010.0 0.0
30/12:19pm 9.6 1.4 9.6 100 0.0 N 43 63 23 34 1010.1 1010.1 0.0
30/12:00pm 9.5 2.0 9.5 100 0.0 N 39 54 21 29 1010.4 1010.4 0.0
30/11:30am 9.5 2.4 9.5 100 0.0 N 37 54 20 29 1010.8 1010.8 0.0
30/11:00am 9.2 0.9 9.2 100 0.0 N 43 63 23 34 1011.0 1011.0 0.0
30/10:52am 9.2 0.9 9.2 100 0.0 N 43 63 23 34 1010.8 1010.8 0.0
30/10:30am 8.8 0.4 8.8 100 0.0 N 43 59 23 32 1011.1 1011.1 0.0
30/10:00am 8.5 0.4 8.5 100 0.0 N 41 54 22 29 1011.2 1011.2 0.0
30/09:30am 8.3 0.1 8.3 100 0.0 N 41 56 22 30 1011.3 1011.4 0.0
30/09:00am 8.1 0.3 8.1 100 0.0 N 39 54 21 29 1011.5 1011.6 23.4
30/08:30am 7.8 -0.1 7.8 100 0.0 N 39 50 21 27 1011.4 1011.5 23.4
30/08:00am 7.5 -0.1 7.5 100 0.0 N 37 52 20 28 1011.2 1011.2 23.4
30/07:45am 7.4 -1.0 7.4 100 0.0 N 41 59 22 32 1011.1 1011.1 23.2
30/07:30am 7.4 -0.6 7.4 100 0.0 N 39 54 21 29 1011.0 1011.0 23.2
30/07:00am 7.0 -0.7 7.0 100 0.0 N 37 50 20 27 1011.0 1011.0 23.2
30/06:30am 6.8 -0.6 6.8 100 0.0 N 35 48 19 26 1011.1 1011.1 23.2
30/06:12am 6.8 -0.2 6.8 100 0.0 N 33 54 18 29 1011.1 1011.1 23.2
30/06:00am 6.7 0.2 6.7 100 0.0 N 30 43 16 23 1011.2 1011.2 23.2
30/05:30am 6.8 0.4 6.8 100 0.0 N 30 43 16 23 1011.2 1011.2 23.2
30/05:00am 6.9 0.9 6.9 100 0.0 N 28 35 15 19 1011.3 1011.4 23.2
30/04:30am 7.0 1.0 7.0 100 0.0 N 28 39 15 21 1011.1 1011.1 23.2
30/04:00am 7.2 0.3 7.2 100 0.0 N 33 44 18 24 1011.0 1011.0 23.2
30/03:30am 7.2 0.5 7.2 100 0.0 N 32 43 17 23 1011.0 1011.0 23.0
30/03:00am 7.3 0.0 7.3 100 0.0 NNW 35 50 19 27 1011.2 1011.2 23.0
30/02:30am 7.3 1.0 7.3 100 0.0 N 30 39 16 21 1011.3 1011.4 23.0
30/02:00am 7.5 0.8 7.5 100 0.0 N 32 41 17 22 1011.3 1011.4 23.0
30/01:30am 7.6 1.0 7.6 100 0.0 N 32 41 17 22 1011.4 1011.5 23.0
30/01:00am 7.6 1.0 7.6 100 0.0 NNW 32 48 17 26 1011.5 1011.6 23.0
30/12:30am 7.7 1.1 7.7 100 0.0 N 32 43 17 23 1011.3 1011.4 22.8
30/12:00am 7.7 1.5 7.7 100 0.0 N 30 41 16 22 1011.3 1011.4 22.8
 
Date/Time
EST
Temp
°C
App
Temp
°C
Dew
Point
Rel
Hum
%
Delta-T
°C
Wind Press
QNH
hPa
Press
MSL
hPa
Rain
since 9 am
mm
Dir
 
Spd
km/h
Gust
km/h
Spd
kts
Gust
kts
29/11:30pm 7.7 1.8 7.7 100 0.0 NNW 28 39 15 21 1011.5 1011.6 22.8
29/11:00pm 7.8 1.6 7.8 100 0.0 NNW 30 37 16 20 1011.6 1011.7 22.8
29/10:30pm 7.8 1.6 7.8 100 0.0 NNW 30 39 16 21 1011.9 1011.9 22.6
29/10:00pm 8.0 2.2 8.0 100 0.0 N 28 37 15 20 1012.2 1012.3 22.6
29/09:30pm 7.8 1.6 7.8 100 0.0 NNW 30 48 16 26 1012.1 1012.2 22.6
29/09:00pm 7.9 1.1 7.9 100 0.0 NNW 33 56 18 30 1011.8 1011.8 22.6
29/08:30pm 8.2 2.1 8.2 100 0.0 NNW 30 50 16 27 1011.4 1011.5 22.6
29/08:00pm 8.2 1.5 8.2 100 0.0 NNW 33 54 18 29 1011.1 1011.1 22.6
29/07:33pm 8.2 1.1 8.2 100 0.0 NNW 35 56 19 30 1010.8 1010.8 22.4
29/07:30pm 8.2 1.5 8.2 100 0.0 NNW 33 52 18 28 1010.9 1010.9 22.4
29/07:05pm 8.1 2.0 8.1 100 0.0 NW 30 48 16 26 1010.9 1010.9 22.4
29/07:00pm 7.8 0.6 7.8 100 0.0 NW 35 54 19 29 1010.9 1010.9 22.2
29/06:55pm 7.7 0.9 7.7 100 0.0 NW 33 54 18 29 1010.8 1010.8 22.0
29/06:30pm 8.6 2.0 8.6 100 0.0 NNW 33 57 18 31 1010.9 1010.9 18.0
29/06:09pm 8.7 2.7 8.7 100 0.0 NNW 30 50 16 27 1010.6 1010.7 17.8
29/06:00pm 8.6 2.2 8.6 100 0.0 NNW 32 50 17 27 1010.6 1010.7 17.8
29/05:30pm 8.6 -0.1 8.6 100 0.0 NNW 44 76 24 41 1010.2 1010.2 17.6
29/05:00pm 9.2 1.3 9.2 100 0.0 NNW 41 65 22 35 1010.0 1010.0 15.8
29/04:33pm 9.3 2.5 9.3 100 0.0 N 35 56 19 30 1010.0 1010.0 14.6
29/04:30pm 9.3 2.1 9.3 100 0.0 N 37 54 20 29 1009.9 1009.9 14.4
29/04:09pm 9.4 1.1 9.4 100 0.0 N 43 63 23 34 1009.9 1009.9 13.6
29/04:00pm 9.4 1.1 9.4 100 0.0 N 43 61 23 33 1009.8 1009.8 13.4
29/03:38pm 9.5 1.6 9.5 100 0.0 N 41 59 22 32 1009.5 1009.5 12.4
29/03:30pm 9.5 1.2 9.5 100 0.0 N 43 59 23 32 1009.3 1009.3 11.4
29/03:04pm 9.6 0.8 9.6 100 0.0 N 46 65 25 35 1009.4 1009.4 8.6
29/03:00pm 9.6 0.4 9.6 100 0.0 N 48 65 26 35 1009.3 1009.3 8.4
29/02:43pm 9.7 0.9 9.7 100 0.0 N 46 65 25 35 1009.2 1009.2 8.2
29/02:30pm 9.8 0.7 9.8 100 0.0 N 48 67 26 36 1009.1 1009.1 7.8
29/02:01pm 9.8 -0.5 9.8 100 0.0 N 54 80 29 43 1008.6 1008.6 5.8
29/02:00pm 9.8 -0.1 9.8 100 0.0 N 52 69 28 37 1008.9 1008.8 5.6
29/01:32pm 9.7 3.0 9.7 100 0.0 N 35 54 19 29 1009.4 1009.4 4.6
29/01:30pm 9.7 3.4 9.7 100 0.0 N 33 46 18 25 1009.6 1009.6 4.4
29/01:17pm 9.7 3.0 9.7 100 0.0 N 35 56 19 30 1010.0 1010.0 3.4
29/01:00pm 9.7 2.3 9.7 100 0.0 N 39 52 21 28 1010.2 1010.2 3.0
29/12:31pm 9.6 2.1 9.6 100 0.0 N 39 59 21 32 1010.6 1010.7 0.8
29/12:30pm 9.7 2.3 9.7 100 0.0 N 39 52 21 28 1010.6 1010.7 0.8
29/12:25pm 9.7 1.5 9.7 100 0.0 N 43 61 23 33 1010.8 1010.8 0.8
29/12:00pm 9.8 3.5 9.8 100 0.0 N 33 50 18 27 1011.6 1011.7 0.6
29/11:30am 9.7 2.6 9.7 100 0.0 N 37 50 20 27 1012.3 1012.4 0.4
29/11:00am 9.7 2.3 9.7 100 0.0 N 39 54 21 29 1012.8 1012.8 0.4
29/10:30am 9.6 3.3 9.6 100 0.0 N 33 48 18 26 1013.5 1013.6 0.4
29/10:00am 9.5 2.8 9.5 100 0.0 N 35 43 19 23 1014.0 1014.1 0.4
29/09:30am 9.5 2.0 9.5 100 0.0 N 39 54 21 29 1014.1 1014.2 0.4
29/09:00am 9.4 2.6 9.4 100 0.0 N 35 54 19 29 1014.5 1014.7 17.4
29/08:30am 9.4 2.6 9.4 100 0.0 N 35 48 19 26 1014.9 1015.0 17.4
29/08:00am 9.4 1.9 9.4 100 0.0 N 39 50 21 27 1014.8 1014.9 16.8
29/07:30am 9.1 0.7 9.1 100 0.0 N 43 59 23 32 1014.9 1015.0 16.6
29/07:00am 9.2 -0.1 9.2 100 0.0 N 48 63 26 34 1014.7 1014.8 16.2
29/06:35am 9.3 0.4 9.3 100 0.0 N 46 67 25 36 1014.4 1014.6 16.2
29/06:30am 9.3 1.4 9.3 100 0.0 N 41 56 22 30 1014.5 1014.7 16.0
29/06:14am 9.3 1.8 9.3 100 0.0 N 39 59 21 32 1015.0 1015.1 15.0
29/06:00am 9.3 2.5 9.3 100 0.0 N 35 46 19 25 1014.9 1015.0 14.6
29/05:30am 9.4 2.6 9.4 100 0.0 N 35 50 19 27 1015.1 1015.3 13.8
29/05:16am 9.4 2.3 9.4 100 0.0 N 37 59 20 32 1015.1 1015.3 13.2
29/05:00am 9.4 3.0 9.4 100 0.0 N 33 50 18 27 1015.4 1015.6 12.4
29/04:30am 9.4 2.6 9.4 100 0.0 N 35 50 19 27 1015.2 1015.4 8.2
29/04:00am 9.5 2.4 9.5 100 0.0 N 37 52 20 28 1015.2 1015.4 7.8
29/03:30am 9.4 2.3 9.4 100 0.0 N 37 46 20 25 1015.4 1015.6 7.4
29/03:00am 9.4 2.3 9.4 100 0.0 N 37 56 20 30 1015.7 1015.8 7.4
29/02:30am 9.3 1.8 9.3 100 0.0 N 39 50 21 27 1015.9 1016.1 7.2
29/02:00am 9.0 1.0 9.0 100 0.0 N 41 57 22 31 1016.1 1016.3 7.0
29/01:30am 8.8 1.1 8.8 100 0.0 N 39 50 21 27 1016.2 1016.4 7.0
29/01:00am 8.6 2.0 8.6 100 0.0 N 33 46 18 25 1016.8 1017.0 7.0
29/12:30am 8.4 1.8 8.4 100 0.0 N 33 50 18 27 1017.0 1017.2 7.0
29/12:00am 8.3 1.6 8.3 100 0.0 N 33 43 18 23 1017.0 1017.2 7.0
 
Date/Time
EST
Temp
°C
App
Temp
°C
Dew
Point
Rel
Hum
%
Delta-T
°C
Wind Press
QNH
hPa
Press
MSL
hPa
Rain
since 9 am
mm
Dir
 
Spd
km/h
Gust
km/h
Spd
kts
Gust
kts
28/11:30pm 8.3 1.6 8.3 100 0.0 N 33 43 18 23 1017.0 1017.2 6.8
28/11:00pm 8.3 1.6 8.3 100 0.0 N 33 43 18 23 1017.3 1017.5 6.8
28/10:30pm 8.0 0.9 8.0 100 0.0 N 35 44 19 24 1017.6 1017.8 6.8
28/10:00pm 7.8 1.6 7.8 100 0.0 N 30 37 16 20 1017.8 1018.0 6.8
28/09:30pm 7.8 2.4 7.8 100 0.0 N 26 35 14 19 1017.9 1018.1 6.8
28/09:00pm 7.9 2.1 7.8 99 0.1 N 28 33 15 18 1018.0 1018.2 6.8
28/08:30pm 7.8 1.9 7.7 99 0.1 N 28 33 15 18 1018.0 1018.2 6.8
28/08:00pm 7.6 2.1 7.5 99 0.1 N 26 30 14 16 1018.1 1018.3 6.8
28/07:30pm 7.6 2.8 7.5 99 0.1 NNE 22 24 12 13 1017.9 1018.1 6.8
28/07:00pm 7.6 2.9 6.1 90 0.7 N 20 20 11 11 1018.0 1018.2 6.8
28/06:30pm 7.7 3.5 5.8 88 0.9 NNE 17 19 9 10 1017.9 1018.1 6.8
28/06:00pm 7.8 4.7 5.6 86 1.1 N 11 15 6 8 1017.6 1017.8 6.8
28/05:30pm 8.3 6.1 5.4 82 1.4 NNW 6 7 3 4 1017.3 1017.5 6.8
28/05:00pm 9.1 7.8 6.2 82 1.4 NW 2 6 1 3 1017.2 1017.4 6.8
28/04:30pm 9.3 7.0 5.9 79 1.7 NW 7 13 4 7 1017.3 1017.5 6.8
28/04:00pm 9.9 6.9 6.1 77 1.9 WNW 11 15 6 8 1017.4 1017.7 6.8
28/03:30pm 10.2 7.9 7.4 83 1.4 NW 9 17 5 9 1017.3 1017.5 6.8
28/03:00pm 9.4 6.8 9.3 99 0.1 NW 13 17 7 9 1017.2 1017.4 6.8
28/02:30pm 9.1 6.4 9.1 100 0.0 NW 13 20 7 11 1017.0 1017.2 6.8
28/02:00pm 9.4 6.4 9.4 100 0.0 NW 15 24 8 13 1017.0 1017.2 6.8
28/01:30pm 9.7 6.8 9.7 100 0.0 WNW 15 26 8 14 1017.0 1017.2 6.8
28/01:00pm 8.5 4.9 8.5 100 0.0 WNW 17 24 9 13 1017.1 1017.3 6.8
28/12:30pm 8.9 5.4 8.9 100 0.0 NW 17 24 9 13 1017.2 1017.4 6.8
28/12:00pm 8.9 4.5 8.9 100 0.0 WNW 22 30 12 16 1017.2 1017.4 6.8
28/11:30am 8.8 5.3 8.8 100 0.0 WNW 17 30 9 16 1017.1 1017.3 6.8
28/11:00am 8.8 5.3 8.8 100 0.0 WNW 17 28 9 15 1016.9 1017.1 6.8
28/10:30am 8.9 3.0 8.9 100 0.0 WNW 30 41 16 22 1016.8 1017.0 6.8
28/10:00am 8.0 0.1 8.0 100 0.0 W 39 50 21 27 1016.3 1016.5 5.8
28/09:44am 8.1 2.0 8.1 100 0.0 W 30 46 16 25 1016.3 1016.5 5.0
28/09:30am 9.2 5.2 9.2 100 0.0 WNW 20 28 11 15 1016.6 1016.7 3.2
28/09:00am 9.4 4.7 9.4 100 0.0 N 24 33 13 18 1016.0 1016.2 0.8
28/08:30am 9.4 4.0 9.4 100 0.0 N 28 35 15 19 1016.0 1016.2 0.6
28/08:00am 9.4 4.4 9.4 100 0.0 NNW 26 35 14 19 1015.8 1015.9 0.6
28/07:30am 9.4 4.7 9.4 100 0.0 NNW 24 30 13 16 1015.3 1015.5 0.6
28/07:00am 9.4 4.4 9.4 100 0.0 NNW 26 33 14 18 1015.1 1015.3 0.6

Other Formats:

Comma delimited format used in spreadsheet applications
http://www.bom.gov.au/fwo/IDT60801/IDT60801.95952.axf

JavaScript Object Notation format (JSON) in row-major order
http://www.bom.gov.au/fwo/IDT60801/IDT60801.95952.json